Clanton, Alabama
Current Conditions -  °F | °C
As of 3:53 PM on Thursday 18 Dec 2014 (Local Time) from KEET Reporting Station
Overcast Overcast  
Wind Chill: 52°   Ceiling: 9000
Heat Index: 52°   Visibility: 10mi
Dew Point: 32°   Wind: 6mph
Humidity: 47%   Direction: 330°NNW
Pressure: 30.15"   Gusts: NA
Location:  32.84°N, 86.63°W
Report Text: KEET 182153Z AUTO 33005KT 10SM OVC090 11/00 A3015 RMK AO2 SLP208 T01110000
Loading
Personal Weather Stations






























Interactive Weather Map New forecast layout! Learn more

10-Day Weather Forecast

Advertisements
Track Severe Weather on mobile